sensor_id;sensor_type;location;lat;lon;timestamp;pressure;altitude;pressure_sealevel;temperature
61390;BMP280;47260;48.274;19.814;2023-02-28T00:01:08;100385.91;;;-3.82
61390;BMP280;47260;48.274;19.814;2023-02-28T00:02:40;100379.53;;;-3.84
61390;BMP280;47260;48.274;19.814;2023-02-28T00:04:11;100385.16;;;-3.82
61390;BMP280;47260;48.274;19.814;2023-02-28T00:05:43;100375.78;;;-3.83
61390;BMP280;47260;48.274;19.814;2023-02-28T00:07:13;100384.78;;;-3.84
61390;BMP280;47260;48.274;19.814;2023-02-28T00:08:45;100384.78;;;-3.84
61390;BMP280;47260;48.274;19.814;2023-02-28T00:10:17;100383.63;;;-3.83
61390;BMP280;47260;48.274;19.814;2023-02-28T00:11:50;100383.28;;;-3.82
61390;BMP280;47260;48.274;19.814;2023-02-28T00:13:23;100382.16;;;-3.81
61390;BMP280;47260;48.274;19.814;2023-02-28T00:14:55;100387.81;;;-3.79
61390;BMP280;47260;48.274;19.814;2023-02-28T00:16:25;100396.84;;;-3.76
61390;BMP280;47260;48.274;19.814;2023-02-28T00:17:57;100391.19;;;-3.78
61390;BMP280;47260;48.274;19.814;2023-02-28T00:19:27;100379.53;;;-3.81
61390;BMP280;47260;48.274;19.814;2023-02-28T00:20:59;100378.81;;;-3.81
61390;BMP280;47260;48.274;19.814;2023-02-28T00:22:30;100382.16;;;-3.81
61390;BMP280;47260;48.274;19.814;2023-02-28T00:24:01;100378.81;;;-3.81
61390;BMP280;47260;48.274;19.814;2023-02-28T00:25:32;100384.44;;;-3.79
61390;BMP280;47260;48.274;19.814;2023-02-28T00:27:03;100379.16;;;-3.83
61390;BMP280;47260;48.274;19.814;2023-02-28T00:28:36;100387.03;;;-3.83
61390;BMP280;47260;48.274;19.814;2023-02-28T00:30:09;100393.75;;;-3.85
61390;BMP280;47260;48.274;19.814;2023-02-28T00:31:41;100390.72;;;-3.87
61390;BMP280;47260;48.274;19.814;2023-02-28T00:33:15;100374.22;;;-3.91
61390;BMP280;47260;48.274;19.814;2023-02-28T00:34:46;100376.47;;;-3.90
61390;BMP280;47260;48.274;19.814;2023-02-28T00:36:18;100385.44;;;-3.91
61390;BMP280;47260;48.274;19.814;2023-02-28T00:37:50;100387.34;;;-3.91
61390;BMP280;47260;48.274;19.814;2023-02-28T00:39:21;100388.47;;;-3.89
61390;BMP280;47260;48.274;19.814;2023-02-28T00:40:53;100389.63;;;-3.86
61390;BMP280;47260;48.274;19.814;2023-02-28T00:42:24;100388.16;;;-3.80
61390;BMP280;47260;48.274;19.814;2023-02-28T00:43:57;100392.31;;;-3.79
61390;BMP280;47260;48.274;19.814;2023-02-28T00:45:29;100388.97;;;-3.76
61390;BMP280;47260;48.274;19.814;2023-02-28T00:47:01;100390.84;;;-3.77
61390;BMP280;47260;48.274;19.814;2023-02-28T00:48:32;100392.31;;;-3.76
61390;BMP280;47260;48.274;19.814;2023-02-28T00:50:04;100398.72;;;-3.73
61390;BMP280;47260;48.274;19.814;2023-02-28T00:51:36;100397.63;;;-3.72
61390;BMP280;47260;48.274;19.814;2023-02-28T00:53:07;100403.66;;;-3.68
61390;BMP280;47260;48.274;19.814;2023-02-28T00:54:39;100402.19;;;-3.65
61390;BMP280;47260;48.274;19.814;2023-02-28T00:56:11;100402.94;;;-3.65
61390;BMP280;47260;48.274;19.814;2023-02-28T00:57:43;100397.00;;;-3.62
61390;BMP280;47260;48.274;19.814;2023-02-28T00:59:16;100400.00;;;-3.63
61390;BMP280;47260;48.274;19.814;2023-02-28T01:00:48;100404.47;;;-3.64
61390;BMP280;47260;48.274;19.814;2023-02-28T01:02:20;100414.59;;;-3.66
61390;BMP280;47260;48.274;19.814;2023-02-28T01:03:50;100413.81;;;-3.66
61390;BMP280;47260;48.274;19.814;2023-02-28T01:05:22;100408.19;;;-3.68
61390;BMP280;47260;48.274;19.814;2023-02-28T01:06:54;100415.22;;;-3.73
61390;BMP280;47260;48.274;19.814;2023-02-28T01:08:25;100415.59;;;-3.74
61390;BMP280;47260;48.274;19.814;2023-02-28T01:09:57;100409.22;;;-3.73
61390;BMP280;47260;48.274;19.814;2023-02-28T01:11:29;100412.59;;;-3.73
61390;BMP280;47260;48.274;19.814;2023-02-28T01:13:00;100413.72;;;-3.74
61390;BMP280;47260;48.274;19.814;2023-02-28T01:14:33;100420.09;;;-3.75
61390;BMP280;47260;48.274;19.814;2023-02-28T01:16:06;100411.47;;;-3.75
61390;BMP280;47260;48.274;19.814;2023-02-28T01:17:38;100408.50;;;-3.74
61390;BMP280;47260;48.274;19.814;2023-02-28T01:19:10;100424.66;;;-3.68
61390;BMP280;47260;48.274;19.814;2023-02-28T01:20:42;100414.16;;;-3.68
61390;BMP280;47260;48.274;19.814;2023-02-28T01:22:14;100422.47;;;-3.66
61390;BMP280;47260;48.274;19.814;2023-02-28T01:23:46;100417.59;;;-3.64
61390;BMP280;47260;48.274;19.814;2023-02-28T01:25:18;100414.97;;;-3.60
61390;BMP280;47260;48.274;19.814;2023-02-28T01:26:49;100415.78;;;-3.56
61390;BMP280;47260;48.274;19.814;2023-02-28T01:28:21;100415.41;;;-3.55
61390;BMP280;47260;48.274;19.814;2023-02-28T01:29:55;100413.19;;;-3.53
61390;BMP280;47260;48.274;19.814;2023-02-28T01:31:26;100416.94;;;-3.50
61390;BMP280;47260;48.274;19.814;2023-02-28T01:32:59;100418.84;;;-3.47
61390;BMP280;47260;48.274;19.814;2023-02-28T01:34:31;100414.03;;;-3.45
61390;BMP280;47260;48.274;19.814;2023-02-28T01:36:04;100417.06;;;-3.40
61390;BMP280;47260;48.274;19.814;2023-02-28T01:37:34;100409.97;;;-3.36
61390;BMP280;47260;48.274;19.814;2023-02-28T01:39:07;100410.00;;;-3.32
61390;BMP280;47260;48.274;19.814;2023-02-28T01:40:38;100407.03;;;-3.27
61390;BMP280;47260;48.274;19.814;2023-02-28T01:42:10;100416.09;;;-3.21
61390;BMP280;47260;48.274;19.814;2023-02-28T01:43:55;100419.53;;;-3.17
61390;BMP280;47260;48.274;19.814;2023-02-28T01:45:29;100416.56;;;-3.12
61390;BMP280;47260;48.274;19.814;2023-02-28T01:47:00;100423.72;;;-3.05
61390;BMP280;47260;48.274;19.814;2023-02-28T01:48:34;100422.22;;;-3.06
61390;BMP280;47260;48.274;19.814;2023-02-28T01:50:06;100418.13;;;-3.04
61390;BMP280;47260;48.274;19.814;2023-02-28T01:51:40;100421.50;;;-3.00
61390;BMP280;47260;48.274;19.814;2023-02-28T01:53:18;100419.66;;;-2.99
61390;BMP280;47260;48.274;19.814;2023-02-28T01:54:51;100417.78;;;-2.95
61390;BMP280;47260;48.274;19.814;2023-02-28T01:56:22;100418.16;;;-2.97
61390;BMP280;47260;48.274;19.814;2023-02-28T01:57:55;100422.66;;;-2.97
61390;BMP280;47260;48.274;19.814;2023-02-28T01:59:30;100417.78;;;-2.99
61390;BMP280;47260;48.274;19.814;2023-02-28T02:01:04;100423.78;;;-2.98
61390;BMP280;47260;48.274;19.814;2023-02-28T02:02:37;100427.88;;;-3.04
61390;BMP280;47260;48.274;19.814;2023-02-28T02:04:07;100421.09;;;-3.05
61390;BMP280;47260;48.274;19.814;2023-02-28T02:05:39;100416.94;;;-3.10
61390;BMP280;47260;48.274;19.814;2023-02-28T02:07:10;100420.28;;;-3.17
61390;BMP280;47260;48.274;19.814;2023-02-28T02:08:42;100415.78;;;-3.13
61390;BMP280;47260;48.274;19.814;2023-02-28T02:10:14;100413.91;;;-3.16
61390;BMP280;47260;48.274;19.814;2023-02-28T02:11:47;100408.66;;;-3.16
61390;BMP280;47260;48.274;19.814;2023-02-28T02:13:28;100409.78;;;-3.17
61390;BMP280;47260;48.274;19.814;2023-02-28T02:15:01;100406.06;;;-3.12
61390;BMP280;47260;48.274;19.814;2023-02-28T02:16:37;100416.94;;;-3.10
61390;BMP280;47260;48.274;19.814;2023-02-28T02:18:16;100417.69;;;-3.10
61390;BMP280;47260;48.274;19.814;2023-02-28T02:23:47;100418.84;;;-3.07
61390;BMP280;47260;48.274;19.814;2023-02-28T02:25:24;100419.22;;;-3.05
61390;BMP280;47260;48.274;19.814;2023-02-28T02:27:01;100419.94;;;-3.12
61390;BMP280;47260;48.274;19.814;2023-02-28T02:28:41;100419.22;;;-3.08
61390;BMP280;47260;48.274;19.814;2023-02-28T02:30:32;100421.09;;;-3.05
61390;BMP280;47260;48.274;19.814;2023-02-28T02:32:16;100428.25;;;-3.06
61390;BMP280;47260;48.274;19.814;2023-02-28T02:35:57;100425.63;;;-3.02
61390;BMP280;47260;48.274;19.814;2023-02-28T02:37:36;100425.28;;;-3.01
61390;BMP280;47260;48.274;19.814;2023-02-28T02:39:11;100434.28;;;-2.98
61390;BMP280;47260;48.274;19.814;2023-02-28T02:40:47;100431.28;;;-2.97
61390;BMP280;47260;48.274;19.814;2023-02-28T02:42:21;100427.19;;;-2.94
61390;BMP280;47260;48.274;19.814;2023-02-28T02:43:56;100424.56;;;-2.94
61390;BMP280;47260;48.274;19.814;2023-02-28T02:45:31;100430.56;;;-2.94
61390;BMP280;47260;48.274;19.814;2023-02-28T02:47:06;100425.31;;;-2.94
61390;BMP280;47260;48.274;19.814;2023-02-28T02:48:39;100430.19;;;-2.92
61390;BMP280;47260;48.274;19.814;2023-02-28T02:50:12;100421.56;;;-2.93
61390;BMP280;47260;48.274;19.814;2023-02-28T02:51:46;100422.69;;;-2.94
61390;BMP280;47260;48.274;19.814;2023-02-28T02:53:20;100423.09;;;-2.92
61390;BMP280;47260;48.274;19.814;2023-02-28T02:54:54;100428.75;;;-2.90
61390;BMP280;47260;48.274;19.814;2023-02-28T02:56:26;100428.38;;;-2.88
61390;BMP280;47260;48.274;19.814;2023-02-28T02:57:59;100435.13;;;-2.87
61390;BMP280;47260;48.274;19.814;2023-02-28T02:59:34;100435.50;;;-2.85
61390;BMP280;47260;48.274;19.814;2023-02-28T03:01:06;100429.16;;;-2.84
61390;BMP280;47260;48.274;19.814;2023-02-28T03:02:39;100434.44;;;-2.81
61390;BMP280;47260;48.274;19.814;2023-02-28T03:04:11;100437.44;;;-2.79
61390;BMP280;47260;48.274;19.814;2023-02-28T03:05:46;100438.59;;;-2.76
61390;BMP280;47260;48.274;19.814;2023-02-28T03:07:19;100430.34;;;-2.75
61390;BMP280;47260;48.274;19.814;2023-02-28T03:08:51;100437.09;;;-2.70
61390;BMP280;47260;48.274;19.814;2023-02-28T03:10:30;100439.00;;;-2.67
61390;BMP280;47260;48.274;19.814;2023-02-28T03:12:00;100433.75;;;-2.67
61390;BMP280;47260;48.274;19.814;2023-02-28T03:13:39;100430.00;;;-2.66
61390;BMP280;47260;48.274;19.814;2023-02-28T03:15:14;100436.75;;;-2.65
61390;BMP280;47260;48.274;19.814;2023-02-28T03:17:09;100434.13;;;-2.69
61390;BMP280;47260;48.274;19.814;2023-02-28T03:18:47;100431.84;;;-2.70
61390;BMP280;47260;48.274;19.814;2023-02-28T03:20:27;100431.47;;;-2.72
61390;BMP280;47260;48.274;19.814;2023-02-28T03:22:13;100435.63;;;-2.68
61390;BMP280;47260;48.274;19.814;2023-02-28T03:23:48;100442.78;;;-2.68
61390;BMP280;47260;48.274;19.814;2023-02-28T03:25:24;100431.50;;;-2.69
61390;BMP280;47260;48.274;19.814;2023-02-28T03:26:58;100431.84;;;-2.70
61390;BMP280;47260;48.274;19.814;2023-02-28T03:28:32;100440.16;;;-2.68
61390;BMP280;47260;48.274;19.814;2023-02-28T03:30:06;100434.50;;;-2.67
61390;BMP280;47260;48.274;19.814;2023-02-28T03:31:42;100434.13;;;-2.65
61390;BMP280;47260;48.274;19.814;2023-02-28T03:33:17;100436.03;;;-2.66
61390;BMP280;47260;48.274;19.814;2023-02-28T03:34:49;100427.00;;;-2.65
61390;BMP280;47260;48.274;19.814;2023-02-28T03:36:25;100439.03;;;-2.64
61390;BMP280;47260;48.274;19.814;2023-02-28T03:37:59;100442.44;;;-2.63
61390;BMP280;47260;48.274;19.814;2023-02-28T03:39:34;100439.81;;;-2.60
61390;BMP280;47260;48.274;19.814;2023-02-28T03:41:09;100441.69;;;-2.60
61390;BMP280;47260;48.274;19.814;2023-02-28T03:42:43;100436.09;;;-2.59
61390;BMP280;47260;48.274;19.814;2023-02-28T03:44:15;100442.09;;;-2.58
61390;BMP280;47260;48.274;19.814;2023-02-28T03:45:47;100445.84;;;-2.56
61390;BMP280;47260;48.274;19.814;2023-02-28T03:47:20;100447.75;;;-2.56
61390;BMP280;47260;48.274;19.814;2023-02-28T03:48:53;100445.84;;;-2.56
61390;BMP280;47260;48.274;19.814;2023-02-28T03:50:27;100447.75;;;-2.56
61390;BMP280;47260;48.274;19.814;2023-02-28T03:51:59;100440.22;;;-2.54
61390;BMP280;47260;48.274;19.814;2023-02-28T03:53:33;100439.09;;;-2.53
61390;BMP280;47260;48.274;19.814;2023-02-28T03:55:07;100443.63;;;-2.54
61390;BMP280;47260;48.274;19.814;2023-02-28T03:56:40;100445.50;;;-2.54
61390;BMP280;47260;48.274;19.814;2023-02-28T03:58:15;100432.69;;;-2.56
61390;BMP280;47260;48.274;19.814;2023-02-28T03:59:53;100437.56;;;-2.58
61390;BMP280;47260;48.274;19.814;2023-02-28T04:01:27;100437.56;;;-2.61
61390;BMP280;47260;48.274;19.814;2023-02-28T04:03:01;100436.03;;;-2.62
61390;BMP280;47260;48.274;19.814;2023-02-28T04:04:33;100444.72;;;-2.62
61390;BMP280;47260;48.274;19.814;2023-02-28T04:06:05;100442.09;;;-2.58
61390;BMP280;47260;48.274;19.814;2023-02-28T04:07:37;100445.13;;;-2.56
61390;BMP280;47260;48.274;19.814;2023-02-28T04:09:09;100446.22;;;-2.57
61390;BMP280;47260;48.274;19.814;2023-02-28T04:10:42;100441.72;;;-2.57
61390;BMP280;47260;48.274;19.814;2023-02-28T04:12:16;100444.31;;;-2.60
61390;BMP280;47260;48.274;19.814;2023-02-28T04:13:48;100443.53;;;-2.64
61390;BMP280;47260;48.274;19.814;2023-02-28T04:15:18;100448.78;;;-2.64
61390;BMP280;47260;48.274;19.814;2023-02-28T04:16:52;100452.94;;;-2.63
61390;BMP280;47260;48.274;19.814;2023-02-28T04:18:24;100451.78;;;-2.66
61390;BMP280;47260;48.274;19.814;2023-02-28T04:19:54;100446.16;;;-2.64
61390;BMP280;47260;48.274;19.814;2023-02-28T04:21:27;100446.16;;;-2.64
61390;BMP280;47260;48.274;19.814;2023-02-28T04:22:58;100440.53;;;-2.63
61390;BMP280;47260;48.274;19.814;2023-02-28T04:24:29;100445.06;;;-2.63
61390;BMP280;47260;48.274;19.814;2023-02-28T04:26:02;100452.88;;;-2.70
61390;BMP280;47260;48.274;19.814;2023-02-28T04:27:34;100441.25;;;-2.69
61390;BMP280;47260;48.274;19.814;2023-02-28T04:29:05;100441.63;;;-2.67
61390;BMP280;47260;48.274;19.814;2023-02-28T04:30:37;100439.38;;;-2.69
61390;BMP280;47260;48.274;19.814;2023-02-28T04:32:09;100435.28;;;-2.66
61390;BMP280;47260;48.274;19.814;2023-02-28T04:33:40;100442.78;;;-2.68
61390;BMP280;47260;48.274;19.814;2023-02-28T04:35:12;100437.91;;;-2.66
61390;BMP280;47260;48.274;19.814;2023-02-28T04:36:44;100445.78;;;-2.66
61390;BMP280;47260;48.274;19.814;2023-02-28T04:38:16;100443.59;;;-2.61
61390;BMP280;47260;48.274;19.814;2023-02-28T04:39:47;100442.03;;;-2.65
61390;BMP280;47260;48.274;19.814;2023-02-28T04:41:20;100439.00;;;-2.67
61390;BMP280;47260;48.274;19.814;2023-02-28T04:42:52;100441.22;;;-2.73
61390;BMP280;47260;48.274;19.814;2023-02-28T04:44:24;100434.44;;;-2.77
61390;BMP280;47260;48.274;19.814;2023-02-28T04:45:56;100435.63;;;-2.71
61390;BMP280;47260;48.274;19.814;2023-02-28T04:47:26;100434.47;;;-2.70
61390;BMP280;47260;48.274;19.814;2023-02-28T04:48:58;100432.22;;;-2.72
61390;BMP280;47260;48.274;19.814;2023-02-28T04:50:29;100427.34;;;-2.73
61390;BMP280;47260;48.274;19.814;2023-02-28T04:52:01;100433.69;;;-2.81
61390;BMP280;47260;48.274;19.814;2023-02-28T04:53:32;100428.47;;;-2.74
61390;BMP280;47260;48.274;19.814;2023-02-28T04:55:05;100426.59;;;-2.70
61390;BMP280;47260;48.274;19.814;2023-02-28T04:56:38;100432.25;;;-2.68
61390;BMP280;47260;48.274;19.814;2023-02-28T04:58:09;100423.63;;;-2.69
61390;BMP280;47260;48.274;19.814;2023-02-28T04:59:40;100421.72;;;-2.72
61390;BMP280;47260;48.274;19.814;2023-02-28T05:01:19;100421.34;;;-2.70
61390;BMP280;47260;48.274;19.814;2023-02-28T05:02:50;100414.94;;;-2.73
61390;BMP280;47260;48.274;19.814;2023-02-28T05:04:21;100421.00;;;-2.69
61390;BMP280;47260;48.274;19.814;2023-02-28T05:05:53;100418.38;;;-2.65
61390;BMP280;47260;48.274;19.814;2023-02-28T05:07:24;100424.03;;;-2.63
61390;BMP280;47260;48.274;19.814;2023-02-28T05:08:56;100417.25;;;-2.64
61390;BMP280;47260;48.274;19.814;2023-02-28T05:10:28;100422.88;;;-2.62
61390;BMP280;47260;48.274;19.814;2023-02-28T05:12:01;100421.03;;;-2.62
61390;BMP280;47260;48.274;19.814;2023-02-28T05:13:33;100417.25;;;-2.64
61390;BMP280;47260;48.274;19.814;2023-02-28T05:15:04;100418.38;;;-2.65
61390;BMP280;47260;48.274;19.814;2023-02-28T05:16:36;100420.25;;;-2.66
61390;BMP280;47260;48.274;19.814;2023-02-28T05:18:08;100427.38;;;-2.63
61390;BMP280;47260;48.274;19.814;2023-02-28T05:19:39;100425.94;;;-2.60
61390;BMP280;47260;48.274;19.814;2023-02-28T05:21:22;100419.19;;;-2.58
61390;BMP280;47260;48.274;19.814;2023-02-28T05:22:54;100421.84;;;-2.54
61390;BMP280;47260;48.274;19.814;2023-02-28T05:24:27;100425.22;;;-2.50
61390;BMP280;47260;48.274;19.814;2023-02-28T05:25:59;100431.28;;;-2.46
61390;BMP280;47260;48.274;19.814;2023-02-28T05:27:31;100422.63;;;-2.43
61390;BMP280;47260;48.274;19.814;2023-02-28T05:29:02;100420.38;;;-2.44
61390;BMP280;47260;48.274;19.814;2023-02-28T05:30:35;100424.13;;;-2.42
61390;BMP280;47260;48.274;19.814;2023-02-28T05:32:06;100428.28;;;-2.37
61390;BMP280;47260;48.274;19.814;2023-02-28T05:33:38;100429.41;;;-2.35
61390;BMP280;47260;48.274;19.814;2023-02-28T05:35:09;100427.94;;;-2.32
61390;BMP280;47260;48.274;19.814;2023-02-28T05:36:41;100420.78;;;-2.32
61390;BMP280;47260;48.274;19.814;2023-02-28T05:38:13;100426.44;;;-2.30
61390;BMP280;47260;48.274;19.814;2023-02-28T05:39:44;100426.09;;;-2.28
61390;BMP280;47260;48.274;19.814;2023-02-28T05:41:16;100428.72;;;-2.28
61390;BMP280;47260;48.274;19.814;2023-02-28T05:42:51;100431.75;;;-2.26
61390;BMP280;47260;48.274;19.814;2023-02-28T05:44:22;100435.88;;;-2.25
61390;BMP280;47260;48.274;19.814;2023-02-28T05:45:54;100428.34;;;-2.27
61390;BMP280;47260;48.274;19.814;2023-02-28T05:47:25;100431.00;;;-2.27
61390;BMP280;47260;48.274;19.814;2023-02-28T05:48:56;100437.78;;;-2.26
61390;BMP280;47260;48.274;19.814;2023-02-28T05:50:30;100437.00;;;-2.23
61390;BMP280;47260;48.274;19.814;2023-02-28T05:52:00;100436.28;;;-2.20
61390;BMP280;47260;48.274;19.814;2023-02-28T05:53:32;100440.41;;;-2.15
61390;BMP280;47260;48.274;19.814;2023-02-28T05:55:02;100439.69;;;-2.09
61390;BMP280;47260;48.274;19.814;2023-02-28T05:56:34;100443.88;;;-2.01
61390;BMP280;47260;48.274;19.814;2023-02-28T05:58:09;100446.13;;;-1.96
61390;BMP280;47260;48.274;19.814;2023-02-28T05:59:40;100449.53;;;-1.88
61390;BMP280;47260;48.274;19.814;2023-02-28T06:01:26;100444.31;;;-1.84
61390;BMP280;47260;48.274;19.814;2023-02-28T06:03:02;100447.31;;;-1.79
61390;BMP280;47260;48.274;19.814;2023-02-28T06:04:33;100446.19;;;-1.74
61390;BMP280;47260;48.274;19.814;2023-02-28T06:06:05;100449.97;;;-1.72
61390;BMP280;47260;48.274;19.814;2023-02-28T06:07:36;100457.13;;;-1.65
61390;BMP280;47260;48.274;19.814;2023-02-28T06:09:08;100459.75;;;-1.62
61390;BMP280;47260;48.274;19.814;2023-02-28T06:10:39;100460.53;;;-1.61
61390;BMP280;47260;48.274;19.814;2023-02-28T06:12:11;100459.38;;;-1.60
61390;BMP280;47260;48.274;19.814;2023-02-28T06:13:42;100464.28;;;-1.62
61390;BMP280;47260;48.274;19.814;2023-02-28T06:15:14;100464.66;;;-1.60
61390;BMP280;47260;48.274;19.814;2023-02-28T06:16:46;100461.63;;;-1.62
61390;BMP280;47260;48.274;19.814;2023-02-28T06:18:18;100465.78;;;-1.61
61390;BMP280;47260;48.274;19.814;2023-02-28T06:19:49;100466.56;;;-1.54
61390;BMP280;47260;48.274;19.814;2023-02-28T06:21:21;100463.16;;;-1.58
61390;BMP280;47260;48.274;19.814;2023-02-28T06:22:52;100468.03;;;-1.60
61390;BMP280;47260;48.274;19.814;2023-02-28T06:24:26;100472.56;;;-1.53
61390;BMP280;47260;48.274;19.814;2023-02-28T06:25:59;100476.34;;;-1.51
61390;BMP280;47260;48.274;19.814;2023-02-28T06:27:31;100478.59;;;-1.42
61390;BMP280;47260;48.274;19.814;2023-02-28T06:29:03;100481.22;;;-1.42
61390;BMP280;47260;48.274;19.814;2023-02-28T06:30:36;100484.59;;;-1.45
61390;BMP280;47260;48.274;19.814;2023-02-28T06:32:08;100486.50;;;-1.42
61390;BMP280;47260;48.274;19.814;2023-02-28T06:33:40;100486.50;;;-1.39
61390;BMP280;47260;48.274;19.814;2023-02-28T06:35:12;100482.78;;;-1.31
61390;BMP280;47260;48.274;19.814;2023-02-28T06:36:44;100478.66;;;-1.28
61390;BMP280;47260;48.274;19.814;2023-02-28T06:38:15;100483.53;;;-1.27
61390;BMP280;47260;48.274;19.814;2023-02-28T06:39:48;100481.66;;;-1.22
61390;BMP280;47260;48.274;19.814;2023-02-28T06:41:20;100480.91;;;-1.16
61390;BMP280;47260;48.274;19.814;2023-02-28T06:42:50;100473.41;;;-1.10
61390;BMP280;47260;48.274;19.814;2023-02-28T06:44:23;100484.66;;;-1.06
61390;BMP280;47260;48.274;19.814;2023-02-28T06:45:55;100474.50;;;-1.04
61390;BMP280;47260;48.274;19.814;2023-02-28T06:47:27;100483.94;;;-0.93
61390;BMP280;47260;48.274;19.814;2023-02-28T06:48:58;100482.03;;;-0.99
61390;BMP280;47260;48.274;19.814;2023-02-28T06:50:30;100487.69;;;-0.94
61390;BMP280;47260;48.274;19.814;2023-02-28T06:52:02;100481.66;;;-0.91
61390;BMP280;47260;48.274;19.814;2023-02-28T06:53:34;100481.66;;;-0.91
61390;BMP280;47260;48.274;19.814;2023-02-28T06:55:06;100479.00;;;-0.80
61390;BMP280;47260;48.274;19.814;2023-02-28T06:56:38;100480.13;;;-0.74
61390;BMP280;47260;48.274;19.814;2023-02-28T06:58:10;100486.53;;;-0.68
61390;BMP280;47260;48.274;19.814;2023-02-28T06:59:47;100486.91;;;-0.73
61390;BMP280;47260;48.274;19.814;2023-02-28T07:01:20;100482.34;;;-0.62
61390;BMP280;47260;48.274;19.814;2023-02-28T07:02:52;100477.06;;;-0.55
61390;BMP280;47260;48.274;19.814;2023-02-28T07:04:25;100486.50;;;-0.57
61390;BMP280;47260;48.274;19.814;2023-02-28T07:05:57;100480.88;;;-0.63
61390;BMP280;47260;48.274;19.814;2023-02-28T07:07:29;100479.34;;;-0.68
61390;BMP280;47260;48.274;19.814;2023-02-28T07:09:01;100469.56;;;-0.67
61390;BMP280;47260;48.274;19.814;2023-02-28T07:10:34;100460.91;;;-0.64
61390;BMP280;47260;48.274;19.814;2023-02-28T07:12:05;100478.19;;;-0.52
61390;BMP280;47260;48.274;19.814;2023-02-28T07:13:37;100482.34;;;-0.55
61390;BMP280;47260;48.274;19.814;2023-02-28T07:15:10;100481.56;;;-0.41
61390;BMP280;47260;48.274;19.814;2023-02-28T07:16:42;100484.97;;;-0.30
61390;BMP280;47260;48.274;19.814;2023-02-28T07:18:14;100489.09;;;-0.26
61390;BMP280;47260;48.274;19.814;2023-02-28T07:19:46;100488.66;;;-0.17
61390;BMP280;47260;48.274;19.814;2023-02-28T07:21:17;100490.50;;;-0.07
61390;BMP280;47260;48.274;19.814;2023-02-28T07:22:49;100486.75;;;-0.06
61390;BMP280;47260;48.274;19.814;2023-02-28T07:24:26;100488.19;;;0.06
61390;BMP280;47260;48.274;19.814;2023-02-28T07:25:58;100496.06;;;0.16
61390;BMP280;47260;48.274;19.814;2023-02-28T07:27:30;100487.75;;;0.21
61390;BMP280;47260;48.274;19.814;2023-02-28T07:29:01;100500.19;;;0.24
61390;BMP280;47260;48.274;19.814;2023-02-28T07:30:34;100496.38;;;0.29
61390;BMP280;47260;48.274;19.814;2023-02-28T07:32:06;100500.84;;;0.39
61390;BMP280;47260;48.274;19.814;2023-02-28T07:33:37;100489.47;;;0.45
61390;BMP280;47260;48.274;19.814;2023-02-28T07:35:09;100503.78;;;0.51
61390;BMP280;47260;48.274;19.814;2023-02-28T07:36:40;100505.25;;;0.59
61390;BMP280;47260;48.274;19.814;2023-02-28T07:38:12;100509.00;;;0.62
61390;BMP280;47260;48.274;19.814;2023-02-28T07:39:43;100518.00;;;0.68
61390;BMP280;47260;48.274;19.814;2023-02-28T07:41:15;100513.06;;;0.74
61390;BMP280;47260;48.274;19.814;2023-02-28T07:42:45;100511.47;;;0.87
61390;BMP280;47260;48.274;19.814;2023-02-28T07:44:20;100517.72;;;1.07
61390;BMP280;47260;48.274;19.814;2023-02-28T07:45:53;100518.75;;;1.20
61390;BMP280;47260;48.274;19.814;2023-02-28T07:47:25;100515.63;;;1.32
61390;BMP280;47260;48.274;19.814;2023-02-28T07:48:56;100517.31;;;1.49
61390;BMP280;47260;48.274;19.814;2023-02-28T07:50:29;100521.72;;;1.63
61390;BMP280;47260;48.274;19.814;2023-02-28T07:52:01;100527.63;;;1.77
61390;BMP280;47260;48.274;19.814;2023-02-28T07:53:32;100520.13;;;2.03
61390;BMP280;47260;48.274;19.814;2023-02-28T07:55:04;100515.28;;;2.24
61390;BMP280;47260;48.274;19.814;2023-02-28T07:56:36;100525.19;;;2.47
61390;BMP280;47260;48.274;19.814;2023-02-28T07:58:08;100528.44;;;2.58
61390;BMP280;47260;48.274;19.814;2023-02-28T07:59:39;100519.69;;;2.61
61390;BMP280;47260;48.274;19.814;2023-02-28T08:01:12;100521.00;;;2.72
61390;BMP280;47260;48.274;19.814;2023-02-28T08:02:44;100524.25;;;2.84
61390;BMP280;47260;48.274;19.814;2023-02-28T08:04:15;100523.41;;;2.90
61390;BMP280;47260;48.274;19.814;2023-02-28T08:05:47;100530.41;;;3.00
61390;BMP280;47260;48.274;19.814;2023-02-28T08:07:19;100526.19;;;3.03
61390;BMP280;47260;48.274;19.814;2023-02-28T08:08:50;100524.28;;;3.03
61390;BMP280;47260;48.274;19.814;2023-02-28T08:10:22;100521.59;;;2.84
61390;BMP280;47260;48.274;19.814;2023-02-28T08:11:54;100518.00;;;2.94
61390;BMP280;47260;48.274;19.814;2023-02-28T08:13:25;100520.03;;;2.86
61390;BMP280;47260;48.274;19.814;2023-02-28T08:14:57;100518.13;;;3.10
61390;BMP280;47260;48.274;19.814;2023-02-28T08:16:30;100519.69;;;3.07
61390;BMP280;47260;48.274;19.814;2023-02-28T08:18:01;100519.16;;;3.16
61390;BMP280;47260;48.274;19.814;2023-02-28T08:19:33;100518.66;;;3.21
61390;BMP280;47260;48.274;19.814;2023-02-28T08:21:05;100530.19;;;3.34
61390;BMP280;47260;48.274;19.814;2023-02-28T08:22:37;100521.59;;;3.26
61390;BMP280;47260;48.274;19.814;2023-02-28T08:24:08;100523.34;;;3.13
61390;BMP280;47260;48.274;19.814;2023-02-28T08:25:40;100522.41;;;3.23
61390;BMP280;47260;48.274;19.814;2023-02-28T08:27:11;100526.22;;;3.22
61390;BMP280;47260;48.274;19.814;2023-02-28T08:28:43;100527.06;;;2.96
61390;BMP280;47260;48.274;19.814;2023-02-28T08:30:15;100522.91;;;2.95
61390;BMP280;47260;48.274;19.814;2023-02-28T08:31:48;100529.34;;;2.94
61390;BMP280;47260;48.274;19.814;2023-02-28T08:33:19;100530.47;;;2.97
61390;BMP280;47260;48.274;19.814;2023-02-28T08:34:51;100525.91;;;2.97
61390;BMP280;47260;48.274;19.814;2023-02-28T08:36:22;100530.28;;;3.07
61390;BMP280;47260;48.274;19.814;2023-02-28T08:37:54;100540.63;;;3.21
61390;BMP280;47260;48.274;19.814;2023-02-28T08:39:26;100532.09;;;3.33
61390;BMP280;47260;48.274;19.814;2023-02-28T08:40:58;100531.72;;;3.35
61390;BMP280;47260;48.274;19.814;2023-02-28T08:42:30;100535.22;;;3.48
61390;BMP280;47260;48.274;19.814;2023-02-28T08:44:03;100532.03;;;3.57
61390;BMP280;47260;48.274;19.814;2023-02-28T08:45:34;100533.47;;;3.61
61390;BMP280;47260;48.274;19.814;2023-02-28T08:47:07;100527.69;;;3.66